sensor_id;sensor_type;location;lat;lon;timestamp;temperature;humidity
1381;DHT22;684;48.342;10.096;2022-11-15T00:00:28;10.10;29.30
1381;DHT22;684;48.342;10.096;2022-11-15T00:02:55;10.00;29.30
1381;DHT22;684;48.342;10.096;2022-11-15T00:05:22;10.00;29.30
1381;DHT22;684;48.342;10.096;2022-11-15T00:07:48;10.00;29.40
1381;DHT22;684;48.342;10.096;2022-11-15T00:10:16;10.00;29.40
1381;DHT22;684;48.342;10.096;2022-11-15T00:12:42;10.00;29.20
1381;DHT22;684;48.342;10.096;2022-11-15T00:15:09;10.00;29.00
1381;DHT22;684;48.342;10.096;2022-11-15T00:17:37;10.00;29.00
1381;DHT22;684;48.342;10.096;2022-11-15T00:20:05;10.00;28.80
1381;DHT22;684;48.342;10.096;2022-11-15T00:22:32;10.00;28.80
1381;DHT22;684;48.342;10.096;2022-11-15T00:24:59;10.00;28.90
1381;DHT22;684;48.342;10.096;2022-11-15T00:27:27;10.00;28.90
1381;DHT22;684;48.342;10.096;2022-11-15T00:29:54;9.90;29.20
1381;DHT22;684;48.342;10.096;2022-11-15T00:32:20;9.90;29.40
1381;DHT22;684;48.342;10.096;2022-11-15T00:34:49;9.80;29.70
1381;DHT22;684;48.342;10.096;2022-11-15T00:37:15;9.70;29.80
1381;DHT22;684;48.342;10.096;2022-11-15T00:39:42;9.70;30.00
1381;DHT22;684;48.342;10.096;2022-11-15T00:42:09;9.70;30.10
1381;DHT22;684;48.342;10.096;2022-11-15T00:44:36;9.70;30.10
1381;DHT22;684;48.342;10.096;2022-11-15T00:47:02;9.70;29.90
1381;DHT22;684;48.342;10.096;2022-11-15T00:49:29;9.60;30.00
1381;DHT22;684;48.342;10.096;2022-11-15T00:51:57;9.60;30.30
1381;DHT22;684;48.342;10.096;2022-11-15T00:54:24;9.50;30.40
1381;DHT22;684;48.342;10.096;2022-11-15T00:56:51;9.50;30.50
1381;DHT22;684;48.342;10.096;2022-11-15T00:59:17;9.40;30.60
1381;DHT22;684;48.342;10.096;2022-11-15T01:01:44;9.40;30.70
1381;DHT22;684;48.342;10.096;2022-11-15T01:04:11;9.40;30.80
1381;DHT22;684;48.342;10.096;2022-11-15T01:06:38;9.30;31.00
1381;DHT22;684;48.342;10.096;2022-11-15T01:09:06;9.30;31.10
1381;DHT22;684;48.342;10.096;2022-11-15T01:11:32;9.20;31.20
1381;DHT22;684;48.342;10.096;2022-11-15T01:13:59;9.20;31.30
1381;DHT22;684;48.342;10.096;2022-11-15T01:16:26;9.20;31.50
1381;DHT22;684;48.342;10.096;2022-11-15T01:18:53;9.20;31.50
1381;DHT22;684;48.342;10.096;2022-11-15T01:21:20;9.20;31.50
1381;DHT22;684;48.342;10.096;2022-11-15T01:23:46;9.10;31.60
1381;DHT22;684;48.342;10.096;2022-11-15T01:26:15;9.10;31.70
1381;DHT22;684;48.342;10.096;2022-11-15T01:28:42;9.00;31.70
1381;DHT22;684;48.342;10.096;2022-11-15T01:31:12;9.00;31.90
1381;DHT22;684;48.342;10.096;2022-11-15T01:33:40;9.00;32.00
1381;DHT22;684;48.342;10.096;2022-11-15T01:36:11;9.00;32.10
1381;DHT22;684;48.342;10.096;2022-11-15T01:38:38;8.90;32.30
1381;DHT22;684;48.342;10.096;2022-11-15T01:41:04;8.90;32.50
1381;DHT22;684;48.342;10.096;2022-11-15T01:43:34;8.80;32.50
1381;DHT22;684;48.342;10.096;2022-11-15T01:46:06;8.80;33.20
1381;DHT22;684;48.342;10.096;2022-11-15T01:48:34;8.80;32.80
1381;DHT22;684;48.342;10.096;2022-11-15T01:51:04;8.80;32.70
1381;DHT22;684;48.342;10.096;2022-11-15T01:53:34;8.80;32.80
1381;DHT22;684;48.342;10.096;2022-11-15T01:56:05;8.80;32.90
1381;DHT22;684;48.342;10.096;2022-11-15T01:58:34;8.80;32.90
1381;DHT22;684;48.342;10.096;2022-11-15T02:01:02;8.80;32.80
1381;DHT22;684;48.342;10.096;2022-11-15T02:03:35;8.70;32.80
1381;DHT22;684;48.342;10.096;2022-11-15T02:06:05;8.70;32.90
1381;DHT22;684;48.342;10.096;2022-11-15T02:08:32;8.60;32.80
1381;DHT22;684;48.342;10.096;2022-11-15T02:10:58;8.60;32.80
1381;DHT22;684;48.342;10.096;2022-11-15T02:13:25;8.50;32.80
1381;DHT22;684;48.342;10.096;2022-11-15T02:16:00;8.50;32.90
1381;DHT22;684;48.342;10.096;2022-11-15T02:18:34;8.40;33.20
1381;DHT22;684;48.342;10.096;2022-11-15T02:21:09;8.40;33.10
1381;DHT22;684;48.342;10.096;2022-11-15T02:30:19;8.30;33.40
1381;DHT22;684;48.342;10.096;2022-11-15T02:32:50;8.30;33.40
1381;DHT22;684;48.342;10.096;2022-11-15T02:35:26;8.20;33.20
1381;DHT22;684;48.342;10.096;2022-11-15T02:37:58;8.20;33.20
1381;DHT22;684;48.342;10.096;2022-11-15T02:40:34;8.10;33.50
1381;DHT22;684;48.342;10.096;2022-11-15T02:43:07;8.10;33.70
1381;DHT22;684;48.342;10.096;2022-11-15T02:46:14;8.00;33.60
1381;DHT22;684;48.342;10.096;2022-11-15T02:48:41;8.00;33.80
1381;DHT22;684;48.342;10.096;2022-11-15T02:51:10;7.90;33.90
1381;DHT22;684;48.342;10.096;2022-11-15T02:53:38;7.90;34.00
1381;DHT22;684;48.342;10.096;2022-11-15T02:56:07;7.80;34.00
1381;DHT22;684;48.342;10.096;2022-11-15T02:58:46;7.80;34.00
1381;DHT22;684;48.342;10.096;2022-11-15T03:01:27;7.80;34.30
1381;DHT22;684;48.342;10.096;2022-11-15T03:04:02;7.70;34.40
1381;DHT22;684;48.342;10.096;2022-11-15T03:06:36;7.70;34.40
1381;DHT22;684;48.342;10.096;2022-11-15T03:09:09;7.70;34.60
1381;DHT22;684;48.342;10.096;2022-11-15T03:11:42;7.70;34.60
1381;DHT22;684;48.342;10.096;2022-11-15T03:14:20;7.80;34.70
1381;DHT22;684;48.342;10.096;2022-11-15T03:16:53;7.60;34.70
1381;DHT22;684;48.342;10.096;2022-11-15T03:19:29;7.60;34.70
1381;DHT22;684;48.342;10.096;2022-11-15T03:21:59;7.60;34.70
1381;DHT22;684;48.342;10.096;2022-11-15T03:24:29;7.50;34.80
1381;DHT22;684;48.342;10.096;2022-11-15T03:26:59;7.50;34.80
1381;DHT22;684;48.342;10.096;2022-11-15T03:29:30;7.50;34.90
1381;DHT22;684;48.342;10.096;2022-11-15T03:32:03;7.50;35.00
1381;DHT22;684;48.342;10.096;2022-11-15T03:34:36;7.40;35.10
1381;DHT22;684;48.342;10.096;2022-11-15T03:37:04;7.40;35.10
1381;DHT22;684;48.342;10.096;2022-11-15T03:39:32;7.30;35.20
1381;DHT22;684;48.342;10.096;2022-11-15T03:42:07;7.30;35.20
1381;DHT22;684;48.342;10.096;2022-11-15T03:44:39;7.20;35.20
1381;DHT22;684;48.342;10.096;2022-11-15T03:47:11;7.20;35.30
1381;DHT22;684;48.342;10.096;2022-11-15T03:49:42;7.20;35.40
1381;DHT22;684;48.342;10.096;2022-11-15T03:52:10;7.10;35.50
1381;DHT22;684;48.342;10.096;2022-11-15T03:54:47;7.10;36.20
1381;DHT22;684;48.342;10.096;2022-11-15T03:57:14;7.10;35.70
1381;DHT22;684;48.342;10.096;2022-11-15T03:59:41;7.00;35.50
1381;DHT22;684;48.342;10.096;2022-11-15T04:02:09;7.10;35.60
1381;DHT22;684;48.342;10.096;2022-11-15T04:04:36;7.00;35.60
1381;DHT22;684;48.342;10.096;2022-11-15T04:07:03;7.00;35.70
1381;DHT22;684;48.342;10.096;2022-11-15T04:09:30;7.00;35.70
1381;DHT22;684;48.342;10.096;2022-11-15T04:11:56;7.00;35.80
1381;DHT22;684;48.342;10.096;2022-11-15T04:14:23;7.00;35.80
1381;DHT22;684;48.342;10.096;2022-11-15T04:16:50;6.90;36.10
1381;DHT22;684;48.342;10.096;2022-11-15T04:19:18;6.90;36.40
1381;DHT22;684;48.342;10.096;2022-11-15T04:22:02;6.90;36.50
1381;DHT22;684;48.342;10.096;2022-11-15T04:24:46;6.80;36.60
1381;DHT22;684;48.342;10.096;2022-11-15T04:27:13;6.80;36.70
1381;DHT22;684;48.342;10.096;2022-11-15T04:29:40;6.80;36.70
1381;DHT22;684;48.342;10.096;2022-11-15T04:32:07;6.80;36.80
1381;DHT22;684;48.342;10.096;2022-11-15T04:34:35;6.80;36.90
1381;DHT22;684;48.342;10.096;2022-11-15T04:37:03;6.80;36.70
1381;DHT22;684;48.342;10.096;2022-11-15T04:39:38;6.80;36.70
1381;DHT22;684;48.342;10.096;2022-11-15T04:42:05;6.80;36.70
1381;DHT22;684;48.342;10.096;2022-11-15T04:44:32;6.80;36.60
1381;DHT22;684;48.342;10.096;2022-11-15T04:46:59;6.80;36.70
1381;DHT22;684;48.342;10.096;2022-11-15T04:49:26;6.80;36.70
1381;DHT22;684;48.342;10.096;2022-11-15T04:51:54;6.80;36.90
1381;DHT22;684;48.342;10.096;2022-11-15T04:54:20;6.80;36.80
1381;DHT22;684;48.342;10.096;2022-11-15T04:56:47;6.90;37.00
1381;DHT22;684;48.342;10.096;2022-11-15T04:59:14;6.90;37.10
1381;DHT22;684;48.342;10.096;2022-11-15T05:01:41;6.90;37.10
1381;DHT22;684;48.342;10.096;2022-11-15T05:04:07;6.90;37.20
1381;DHT22;684;48.342;10.096;2022-11-15T05:06:47;6.90;37.30
1381;DHT22;684;48.342;10.096;2022-11-15T05:09:15;6.90;37.20
1381;DHT22;684;48.342;10.096;2022-11-15T05:11:42;6.90;37.20
1381;DHT22;684;48.342;10.096;2022-11-15T05:14:09;7.00;37.30
1381;DHT22;684;48.342;10.096;2022-11-15T05:16:36;7.00;37.20
1381;DHT22;684;48.342;10.096;2022-11-15T05:19:04;7.00;37.20
1381;DHT22;684;48.342;10.096;2022-11-15T05:21:31;7.00;37.30
1381;DHT22;684;48.342;10.096;2022-11-15T05:23:58;7.00;37.30
1381;DHT22;684;48.342;10.096;2022-11-15T05:26:27;7.00;37.30
1381;DHT22;684;48.342;10.096;2022-11-15T05:28:55;6.90;37.30
1381;DHT22;684;48.342;10.096;2022-11-15T05:31:22;6.90;37.30
1381;DHT22;684;48.342;10.096;2022-11-15T05:33:50;6.90;37.30
1381;DHT22;684;48.342;10.096;2022-11-15T05:36:20;6.90;37.60
1381;DHT22;684;48.342;10.096;2022-11-15T05:38:49;6.80;37.50
1381;DHT22;684;48.342;10.096;2022-11-15T05:41:17;6.80;37.50
1381;DHT22;684;48.342;10.096;2022-11-15T05:43:47;6.80;37.50
1381;DHT22;684;48.342;10.096;2022-11-15T05:46:15;6.80;37.60
1381;DHT22;684;48.342;10.096;2022-11-15T05:48:45;6.80;37.60
1381;DHT22;684;48.342;10.096;2022-11-15T05:51:14;6.80;37.60
1381;DHT22;684;48.342;10.096;2022-11-15T05:53:42;6.90;37.60
1381;DHT22;684;48.342;10.096;2022-11-15T05:56:09;6.90;37.60
1381;DHT22;684;48.342;10.096;2022-11-15T05:58:37;6.90;37.70
1381;DHT22;684;48.342;10.096;2022-11-15T06:01:05;6.90;37.70
1381;DHT22;684;48.342;10.096;2022-11-15T06:03:32;6.90;37.70
1381;DHT22;684;48.342;10.096;2022-11-15T06:05:59;6.80;37.60
1381;DHT22;684;48.342;10.096;2022-11-15T06:08:26;6.80;37.60
1381;DHT22;684;48.342;10.096;2022-11-15T06:10:53;6.80;37.60
1381;DHT22;684;48.342;10.096;2022-11-15T06:13:20;6.70;37.60
1381;DHT22;684;48.342;10.096;2022-11-15T06:15:46;6.70;37.60
1381;DHT22;684;48.342;10.096;2022-11-15T06:18:15;6.70;37.60
1381;DHT22;684;48.342;10.096;2022-11-15T06:20:41;6.70;37.70
1381;DHT22;684;48.342;10.096;2022-11-15T06:23:08;6.70;37.70
1381;DHT22;684;48.342;10.096;2022-11-15T06:25:35;6.70;37.80
1381;DHT22;684;48.342;10.096;2022-11-15T06:28:02;6.60;37.70
1381;DHT22;684;48.342;10.096;2022-11-15T06:30:28;6.70;37.70
1381;DHT22;684;48.342;10.096;2022-11-15T06:32:59;6.70;37.70
1381;DHT22;684;48.342;10.096;2022-11-15T06:35:29;6.60;37.70
1381;DHT22;684;48.342;10.096;2022-11-15T06:37:59;6.70;37.70
1381;DHT22;684;48.342;10.096;2022-11-15T06:40:28;6.60;37.70
1381;DHT22;684;48.342;10.096;2022-11-15T06:42:58;6.70;37.80
1381;DHT22;684;48.342;10.096;2022-11-15T06:45:24;6.60;37.80
1381;DHT22;684;48.342;10.096;2022-11-15T06:47:51;6.60;37.60
1381;DHT22;684;48.342;10.096;2022-11-15T06:50:18;6.60;37.50
1381;DHT22;684;48.342;10.096;2022-11-15T06:52:46;6.70;37.60
1381;DHT22;684;48.342;10.096;2022-11-15T06:55:13;6.70;37.60
1381;DHT22;684;48.342;10.096;2022-11-15T06:57:46;6.80;37.40
1381;DHT22;684;48.342;10.096;2022-11-15T07:00:14;6.80;37.40
1381;DHT22;684;48.342;10.096;2022-11-15T07:02:41;6.90;37.40
1381;DHT22;684;48.342;10.096;2022-11-15T07:05:08;7.00;37.20
1381;DHT22;684;48.342;10.096;2022-11-15T07:07:35;7.10;37.40
1381;DHT22;684;48.342;10.096;2022-11-15T07:10:04;7.30;37.30
1381;DHT22;684;48.342;10.096;2022-11-15T07:12:31;7.50;37.30
1381;DHT22;684;48.342;10.096;2022-11-15T07:14:58;7.80;36.90
1381;DHT22;684;48.342;10.096;2022-11-15T07:17:25;8.40;36.20
1381;DHT22;684;48.342;10.096;2022-11-15T07:19:52;9.00;35.10
1381;DHT22;684;48.342;10.096;2022-11-15T07:22:19;9.80;33.40
1381;DHT22;684;48.342;10.096;2022-11-15T07:24:46;10.50;31.60
1381;DHT22;684;48.342;10.096;2022-11-15T07:27:14;11.30;29.50
1381;DHT22;684;48.342;10.096;2022-11-15T07:29:40;12.00;27.00
1381;DHT22;684;48.342;10.096;2022-11-15T07:32:07;12.40;25.10
1381;DHT22;684;48.342;10.096;2022-11-15T07:34:35;12.90;23.80
1381;DHT22;684;48.342;10.096;2022-11-15T07:37:02;13.30;23.10
1381;DHT22;684;48.342;10.096;2022-11-15T07:39:28;13.50;22.30
1381;DHT22;684;48.342;10.096;2022-11-15T07:41:55;13.60;20.90
1381;DHT22;684;48.342;10.096;2022-11-15T07:44:37;13.60;21.00
1381;DHT22;684;48.342;10.096;2022-11-15T07:47:04;13.50;20.50
1381;DHT22;684;48.342;10.096;2022-11-15T07:49:31;13.60;20.30
1381;DHT22;684;48.342;10.096;2022-11-15T07:51:57;13.90;19.90
1381;DHT22;684;48.342;10.096;2022-11-15T07:54:24;14.20;19.50
1381;DHT22;684;48.342;10.096;2022-11-15T07:56:51;14.40;18.70
1381;DHT22;684;48.342;10.096;2022-11-15T07:59:18;14.50;18.20
1381;DHT22;684;48.342;10.096;2022-11-15T08:01:46;14.60;18.40
1381;DHT22;684;48.342;10.096;2022-11-15T08:04:13;14.80;18.30
1381;DHT22;684;48.342;10.096;2022-11-15T08:06:40;14.80;17.70
1381;DHT22;684;48.342;10.096;2022-11-15T08:09:06;14.90;18.30
1381;DHT22;684;48.342;10.096;2022-11-15T08:11:33;15.10;18.10
1381;DHT22;684;48.342;10.096;2022-11-15T08:14:00;15.20;16.50
1381;DHT22;684;48.342;10.096;2022-11-15T08:16:27;15.30;14.90
1381;DHT22;684;48.342;10.096;2022-11-15T08:18:55;15.20;15.10
1381;DHT22;684;48.342;10.096;2022-11-15T08:21:22;15.10;15.30
1381;DHT22;684;48.342;10.096;2022-11-15T08:23:49;15.10;16.00
1381;DHT22;684;48.342;10.096;2022-11-15T08:26:16;15.40;15.90
1381;DHT22;684;48.342;10.096;2022-11-15T08:28:43;15.90;14.70
1381;DHT22;684;48.342;10.096;2022-11-15T08:31:13;16.40;12.90
1381;DHT22;684;48.342;10.096;2022-11-15T08:33:42;16.60;11.90
1381;DHT22;684;48.342;10.096;2022-11-15T08:36:13;16.70;11.60
1381;DHT22;684;48.342;10.096;2022-11-15T08:38:41;16.70;11.70
1381;DHT22;684;48.342;10.096;2022-11-15T08:41:12;16.70;11.90
1381;DHT22;684;48.342;10.096;2022-11-15T08:43:39;16.80;12.50
1381;DHT22;684;48.342;10.096;2022-11-15T08:46:09;16.90;12.10
1381;DHT22;684;48.342;10.096;2022-11-15T08:48:37;17.20;11.60
1381;DHT22;684;48.342;10.096;2022-11-15T08:51:04;17.50;10.70
1381;DHT22;684;48.342;10.096;2022-11-15T08:53:33;18.00;9.50
1381;DHT22;684;48.342;10.096;2022-11-15T08:56:00;18.60;8.20
1381;DHT22;684;48.342;10.096;2022-11-15T08:58:27;18.90;7.90
1381;DHT22;684;48.342;10.096;2022-11-15T09:00:53;19.40;7.20
1381;DHT22;684;48.342;10.096;2022-11-15T09:03:20;19.80;6.30
1381;DHT22;684;48.342;10.096;2022-11-15T09:05:47;20.30;6.20
1381;DHT22;684;48.342;10.096;2022-11-15T09:08:14;20.50;5.50
1381;DHT22;684;48.342;10.096;2022-11-15T09:10:42;20.80;5.10
1381;DHT22;684;48.342;10.096;2022-11-15T09:13:09;21.00;4.50
1381;DHT22;684;48.342;10.096;2022-11-15T09:15:36;21.20;4.60
1381;DHT22;684;48.342;10.096;2022-11-15T09:18:02;21.20;4.40
1381;DHT22;684;48.342;10.096;2022-11-15T09:20:29;21.30;4.30
1381;DHT22;684;48.342;10.096;2022-11-15T09:22:59;21.10;4.70
1381;DHT22;684;48.342;10.096;2022-11-15T09:25:27;21.10;5.40
1381;DHT22;684;48.342;10.096;2022-11-15T09:27:55;21.00;5.40
1381;DHT22;684;48.342;10.096;2022-11-15T09:30:22;21.00;5.40
1381;DHT22;684;48.342;10.096;2022-11-15T09:32:49;20.80;5.50
1381;DHT22;684;48.342;10.096;2022-11-15T09:35:16;20.80;5.60
1381;DHT22;684;48.342;10.096;2022-11-15T09:37:43;20.70;5.60
1381;DHT22;684;48.342;10.096;2022-11-15T09:40:13;20.70;5.20
1381;DHT22;684;48.342;10.096;2022-11-15T09:42:52;20.70;5.70
1381;DHT22;684;48.342;10.096;2022-11-15T09:45:30;20.80;6.40
1381;DHT22;684;48.342;10.096;2022-11-15T09:51:12;21.00;6.10
1381;DHT22;684;48.342;10.096;2022-11-15T09:53:48;21.00;6.30
1381;DHT22;684;48.342;10.096;2022-11-15T09:56:19;21.10;6.70
1381;DHT22;684;48.342;10.096;2022-11-15T09:58:52;21.10;6.70
1381;DHT22;684;48.342;10.096;2022-11-15T10:01:34;21.10;6.20
1381;DHT22;684;48.342;10.096;2022-11-15T10:04:02;21.10;6.50
1381;DHT22;684;48.342;10.096;2022-11-15T10:06:30;21.30;6.50
1381;DHT22;684;48.342;10.096;2022-11-15T10:09:01;21.60;6.00
1381;DHT22;684;48.342;10.096;2022-11-15T10:11:31;21.80;5.40
1381;DHT22;684;48.342;10.096;2022-11-15T10:14:01;21.90;5.20
1381;DHT22;684;48.342;10.096;2022-11-15T10:16:49;22.30;4.60
1381;DHT22;684;48.342;10.096;2022-11-15T10:19:26;22.80;4.70
1381;DHT22;684;48.342;10.096;2022-11-15T10:22:05;23.00;2.00
1381;DHT22;684;48.342;10.096;2022-11-15T10:24:41;23.20;2.30
1381;DHT22;684;48.342;10.096;2022-11-15T10:27:11;23.30;1.60
1381;DHT22;684;48.342;10.096;2022-11-15T10:29:43;23.50;1.10
1381;DHT22;684;48.342;10.096;2022-11-15T10:32:12;23.60;1.00
1381;DHT22;684;48.342;10.096;2022-11-15T10:34:39;24.00;1.00
1381;DHT22;684;48.342;10.096;2022-11-15T10:37:06;24.60;1.00
1381;DHT22;684;48.342;10.096;2022-11-15T10:39:32;25.10;1.00
1381;DHT22;684;48.342;10.096;2022-11-15T10:42:15;25.70;1.00
1381;DHT22;684;48.342;10.096;2022-11-15T10:44:43;26.10;1.00
1381;DHT22;684;48.342;10.096;2022-11-15T10:47:33;26.60;1.00
1381;DHT22;684;48.342;10.096;2022-11-15T10:50:03;27.10;1.00
1381;DHT22;684;48.342;10.096;2022-11-15T10:52:31;27.40;1.00
1381;DHT22;684;48.342;10.096;2022-11-15T10:55:02;27.70;1.00
1381;DHT22;684;48.342;10.096;2022-11-15T10:57:32;27.90;1.00
1381;DHT22;684;48.342;10.096;2022-11-15T11:00:02;28.20;1.00
1381;DHT22;684;48.342;10.096;2022-11-15T11:02:34;28.40;1.00
1381;DHT22;684;48.342;10.096;2022-11-15T11:05:04;28.50;1.00
1381;DHT22;684;48.342;10.096;2022-11-15T11:07:33;28.70;1.00
1381;DHT22;684;48.342;10.096;2022-11-15T11:10:02;28.80;1.00
1381;DHT22;684;48.342;10.096;2022-11-15T11:12:31;28.90;1.00
1381;DHT22;684;48.342;10.096;2022-11-15T11:14:59;28.90;1.00
1381;DHT22;684;48.342;10.096;2022-11-15T11:17:38;29.00;1.00
1381;DHT22;684;48.342;10.096;2022-11-15T11:20:17;29.00;1.00
1381;DHT22;684;48.342;10.096;2022-11-15T11:22:56;28.90;1.00
1381;DHT22;684;48.342;10.096;2022-11-15T11:25:32;28.60;1.00
1381;DHT22;684;48.342;10.096;2022-11-15T11:28:18;28.60;1.00
1381;DHT22;684;48.342;10.096;2022-11-15T11:30:53;28.40;1.00
1381;DHT22;684;48.342;10.096;2022-11-15T11:33:26;28.00;1.00
1381;DHT22;684;48.342;10.096;2022-11-15T11:36:03;27.80;1.00
1381;DHT22;684;48.342;10.096;2022-11-15T11:38:42;27.50;1.00
1381;DHT22;684;48.342;10.096;2022-11-15T11:41:19;27.30;1.00
1381;DHT22;684;48.342;10.096;2022-11-15T11:43:54;27.10;1.00
1381;DHT22;684;48.342;10.096;2022-11-15T11:46:45;27.00;1.00
1381;DHT22;684;48.342;10.096;2022-11-15T11:49:20;26.90;1.00
1381;DHT22;684;48.342;10.096;2022-11-15T11:51:51;26.50;1.00
1381;DHT22;684;48.342;10.096;2022-11-15T11:54:24;26.10;1.00
1381;DHT22;684;48.342;10.096;2022-11-15T11:56:53;25.60;1.00
1381;DHT22;684;48.342;10.096;2022-11-15T11:59:30;25.30;1.00
1381;DHT22;684;48.342;10.096;2022-11-15T12:01:58;25.20;1.00
1381;DHT22;684;48.342;10.096;2022-11-15T12:04:32;25.40;1.00
1381;DHT22;684;48.342;10.096;2022-11-15T12:07:07;25.50;1.00
1381;DHT22;684;48.342;10.096;2022-11-15T12:09:38;25.50;1.00
1381;DHT22;684;48.342;10.096;2022-11-15T12:12:09;25.30;1.00
1381;DHT22;684;48.342;10.096;2022-11-15T12:14:42;25.20;1.00
1381;DHT22;684;48.342;10.096;2022-11-15T12:17:11;25.00;1.00
1381;DHT22;684;48.342;10.096;2022-11-15T12:19:40;24.90;1.00
1381;DHT22;684;48.342;10.096;2022-11-15T12:22:12;24.80;1.00
1381;DHT22;684;48.342;10.096;2022-11-15T12:24:42;24.50;1.00
1381;DHT22;684;48.342;10.096;2022-11-15T12:27:17;24.00;1.00
1381;DHT22;684;48.342;10.096;2022-11-15T12:29:48;23.40;1.00
1381;DHT22;684;48.342;10.096;2022-11-15T12:32:24;23.00;1.00
1381;DHT22;684;48.342;10.096;2022-11-15T12:34:53;22.70;1.40
1381;DHT22;684;48.342;10.096;2022-11-15T12:37:47;22.60;1.20
1381;DHT22;684;48.342;10.096;2022-11-15T12:40:21;22.30;1.40
1381;DHT22;684;48.342;10.096;2022-11-15T12:45:46;21.60;2.40
1381;DHT22;684;48.342;10.096;2022-11-15T12:57:41;19.80;4.70
1381;DHT22;684;48.342;10.096;2022-11-15T13:00:36;19.40;5.10
1381;DHT22;684;48.342;10.096;2022-11-15T13:03:27;19.10;5.50
1381;DHT22;684;48.342;10.096;2022-11-15T13:06:04;18.80;5.80
1381;DHT22;684;48.342;10.096;2022-11-15T13:08:45;18.50;6.10
1381;DHT22;684;48.342;10.096;2022-11-15T13:11:46;18.30;6.60
1381;DHT22;684;48.342;10.096;2022-11-15T13:14:42;18.00;7.20
1381;DHT22;684;48.342;10.096;2022-11-15T13:20:21;17.60;8.40
1381;DHT22;684;48.342;10.096;2022-11-15T13:22:50;17.50;8.90
1381;DHT22;684;48.342;10.096;2022-11-15T13:25:22;17.30;9.40
1381;DHT22;684;48.342;10.096;2022-11-15T13:27:52;17.20;9.70
1381;DHT22;684;48.342;10.096;2022-11-15T13:30:21;17.10;10.20
1381;DHT22;684;48.342;10.096;2022-11-15T13:32:49;17.00;10.90
1381;DHT22;684;48.342;10.096;2022-11-15T13:35:22;16.80;11.20
1381;DHT22;684;48.342;10.096;2022-11-15T13:37:49;16.70;11.80
1381;DHT22;684;48.342;10.096;2022-11-15T13:40:23;16.70;12.00
1381;DHT22;684;48.342;10.096;2022-11-15T13:42:50;16.50;12.20
1381;DHT22;684;48.342;10.096;2022-11-15T13:45:18;16.50;12.70
1381;DHT22;684;48.342;10.096;2022-11-15T13:47:51;16.40;13.20
1381;DHT22;684;48.342;10.096;2022-11-15T13:50:20;16.30;13.50
1381;DHT22;684;48.342;10.096;2022-11-15T13:52:47;16.20;13.70
1381;DHT22;684;48.342;10.096;2022-11-15T13:55:17;16.10;14.10
1381;DHT22;684;48.342;10.096;2022-11-15T13:57:48;16.10;14.60
1381;DHT22;684;48.342;10.096;2022-11-15T14:00:32;16.00;14.90
1381;DHT22;684;48.342;10.096;2022-11-15T14:03:07;15.90;15.60
1381;DHT22;684;48.342;10.096;2022-11-15T14:05:34;15.90;16.20
1381;DHT22;684;48.342;10.096;2022-11-15T14:08:03;15.80;16.60
1381;DHT22;684;48.342;10.096;2022-11-15T14:10:38;15.70;16.90
1381;DHT22;684;48.342;10.096;2022-11-15T14:13:27;15.70;17.10
1381;DHT22;684;48.342;10.096;2022-11-15T14:15:54;15.60;17.40
1381;DHT22;684;48.342;10.096;2022-11-15T14:18:40;15.50;17.20
1381;DHT22;684;48.342;10.096;2022-11-15T14:21:08;15.50;17.30
1381;DHT22;684;48.342;10.096;2022-11-15T14:23:35;15.40;17.30
1381;DHT22;684;48.342;10.096;2022-11-15T14:26:02;15.40;17.40
1381;DHT22;684;48.342;10.096;2022-11-15T14:28:32;15.40;17.90
1381;DHT22;684;48.342;10.096;2022-11-15T14:31:09;15.30;17.90
1381;DHT22;684;48.342;10.096;2022-11-15T14:33:37;15.30;18.00
1381;DHT22;684;48.342;10.096;2022-11-15T14:36:06;15.30;18.30
1381;DHT22;684;48.342;10.096;2022-11-15T14:38:37;15.30;18.50
1381;DHT22;684;48.342;10.096;2022-11-15T14:41:04;15.20;18.60
1381;DHT22;684;48.342;10.096;2022-11-15T14:43:32;15.10;18.90
1381;DHT22;684;48.342;10.096;2022-11-15T14:45:59;15.00;19.60
1381;DHT22;684;48.342;10.096;2022-11-15T14:48:26;15.00;19.40
1381;DHT22;684;48.342;10.096;2022-11-15T14:50:52;14.90;19.70
1381;DHT22;684;48.342;10.096;2022-11-15T14:53:19;14.80;19.90
1381;DHT22;684;48.342;10.096;2022-11-15T14:55:47;14.70;20.40
1381;DHT22;684;48.342;10.096;2022-11-15T14:58:14;14.60;20.50
1381;DHT22;684;48.342;10.096;2022-11-15T15:00:42;14.60;20.40
1381;DHT22;684;48.342;10.096;2022-11-15T15:03:09;14.50;20.90
1381;DHT22;684;48.342;10.096;2022-11-15T15:05:38;14.40;21.20
1381;DHT22;684;48.342;10.096;2022-11-15T15:08:06;14.30;21.40
1381;DHT22;684;48.342;10.096;2022-11-15T15:10:34;14.30;21.70
1381;DHT22;684;48.342;10.096;2022-11-15T15:13:02;14.20;21.90
1381;DHT22;684;48.342;10.096;2022-11-15T15:15:32;14.10;22.10
1381;DHT22;684;48.342;10.096;2022-11-15T15:18:01;14.00;22.20
1381;DHT22;684;48.342;10.096;2022-11-15T15:20:29;13.90;22.20
1381;DHT22;684;48.342;10.096;2022-11-15T15:22:56;13.90;22.40
1381;DHT22;684;48.342;10.096;2022-11-15T15:25:25;13.90;22.70
1381;DHT22;684;48.342;10.096;2022-11-15T15:27:53;13.80;22.80
1381;DHT22;684;48.342;10.096;2022-11-15T15:30:20;13.80;23.10
1381;DHT22;684;48.342;10.096;2022-11-15T15:32:48;13.70;23.20
1381;DHT22;684;48.342;10.096;2022-11-15T15:35:17;13.70;23.10
1381;DHT22;684;48.342;10.096;2022-11-15T15:37:45;13.70;23.20
1381;DHT22;684;48.342;10.096;2022-11-15T15:40:14;13.60;23.90
1381;DHT22;684;48.342;10.096;2022-11-15T15:42:42;13.60;23.50
1381;DHT22;684;48.342;10.096;2022-11-15T15:45:09;13.60;23.70
1381;DHT22;684;48.342;10.096;2022-11-15T15:47:37;13.50;23.70
1381;DHT22;684;48.342;10.096;2022-11-15T15:50:04;13.50;23.80
1381;DHT22;684;48.342;10.096;2022-11-15T15:52:40;13.50;24.00
1381;DHT22;684;48.342;10.096;2022-11-15T15:55:07;13.40;24.20
1381;DHT22;684;48.342;10.096;2022-11-15T15:57:34;13.40;24.40
1381;DHT22;684;48.342;10.096;2022-11-15T16:00:01;13.30;24.50
1381;DHT22;684;48.342;10.096;2022-11-15T16:02:28;13.30;24.70
1381;DHT22;684;48.342;10.096;2022-11-15T16:04:54;13.30;24.80
1381;DHT22;684;48.342;10.096;2022-11-15T16:07:22;13.20;25.10
1381;DHT22;684;48.342;10.096;2022-11-15T16:09:51;13.20;25.90
1381;DHT22;684;48.342;10.096;2022-11-15T16:12:26;13.10;26.60
1381;DHT22;684;48.342;10.096;2022-11-15T16:14:53;13.10;26.60
1381;DHT22;684;48.342;10.096;2022-11-15T16:17:22;13.00;26.60
1381;DHT22;684;48.342;10.096;2022-11-15T16:19:49;13.00;26.60
1381;DHT22;684;48.342;10.096;2022-11-15T16:22:16;13.00;26.80
1381;DHT22;684;48.342;10.096;2022-11-15T16:24:42;13.00;26.70
1381;DHT22;684;48.342;10.096;2022-11-15T16:27:13;13.00;26.90
1381;DHT22;684;48.342;10.096;2022-11-15T16:29:40;13.00;26.80
1381;DHT22;684;48.342;10.096;2022-11-15T16:32:07;13.00;26.80
1381;DHT22;684;48.342;10.096;2022-11-15T16:34:34;12.90;26.90
1381;DHT22;684;48.342;10.096;2022-11-15T16:37:01;12.90;26.90
1381;DHT22;684;48.342;10.096;2022-11-15T16:39:28;12.90;27.20
1381;DHT22;684;48.342;10.096;2022-11-15T16:41:55;12.80;27.20
1381;DHT22;684;48.342;10.096;2022-11-15T16:44:24;12.80;27.40
1381;DHT22;684;48.342;10.096;2022-11-15T16:46:51;12.80;27.30
1381;DHT22;684;48.342;10.096;2022-11-15T16:49:19;12.80;27.30
1381;DHT22;684;48.342;10.096;2022-11-15T16:51:47;12.80;27.30
1381;DHT22;684;48.342;10.096;2022-11-15T16:54:14;12.80;27.30